createdAt,value
2018-12-22T00:00:52.970Z,12.13
2018-12-22T00:01:53.059Z,12.10
2018-12-22T00:02:53.298Z,12.02
2018-12-22T00:03:53.446Z,12.15
2018-12-22T00:04:53.520Z,12.17
2018-12-22T00:05:53.787Z,12.09
2018-12-22T00:06:53.846Z,12.18
2018-12-22T00:07:54.098Z,12.10
2018-12-22T00:08:54.234Z,12.10
2018-12-22T00:09:54.360Z,12.17
2018-12-22T00:10:54.556Z,12.18
2018-12-22T00:11:54.739Z,12.12
2018-12-22T00:12:54.895Z,12.13
2018-12-22T00:13:55.119Z,12.10
2018-12-22T00:14:55.114Z,12.06
2018-12-22T00:15:55.212Z,12.03
2018-12-22T00:16:55.297Z,11.95
2018-12-22T00:17:55.547Z,12.06
2018-12-22T00:18:55.739Z,12.06
2018-12-22T00:19:55.875Z,12.00
2018-12-22T00:20:56.163Z,11.97
2018-12-22T00:21:56.189Z,12.04
2018-12-22T00:22:56.259Z,12.13
2018-12-22T00:23:56.476Z,12.03
2018-12-22T00:24:56.583Z,12.02
2018-12-22T00:25:56.685Z,11.97
2018-12-22T00:26:59.534Z,12.03
2018-12-22T00:27:56.968Z,11.97
2018-12-22T00:28:57.161Z,12.00
2018-12-22T00:29:57.344Z,12.03
2018-12-22T00:30:57.547Z,12.02
2018-12-22T00:31:57.918Z,12.04
2018-12-22T00:32:57.884Z,12.02
2018-12-22T00:33:58.192Z,12.06
2018-12-22T00:34:58.340Z,12.09
2018-12-22T00:35:58.411Z,12.07
2018-12-22T00:36:58.660Z,11.94
2018-12-22T00:37:58.857Z,11.88
2018-12-22T00:38:58.959Z,11.87
2018-12-22T00:39:59.131Z,11.90
2018-12-22T00:40:59.274Z,11.88
2018-12-22T00:41:59.454Z,12.00
2018-12-22T00:42:59.605Z,11.87
2018-12-22T00:43:59.688Z,11.94
2018-12-22T00:44:59.909Z,11.97
2018-12-22T00:46:00.091Z,11.99
2018-12-22T00:47:00.258Z,11.95
2018-12-22T00:48:00.352Z,11.97
2018-12-22T00:49:00.447Z,11.99
2018-12-22T00:50:00.591Z,11.86
2018-12-22T00:51:00.728Z,11.88
2018-12-22T00:52:00.852Z,11.87
2018-12-22T00:53:00.952Z,11.84
2018-12-22T00:54:01.286Z,11.95
2018-12-22T00:55:01.353Z,12.03
2018-12-22T00:56:01.521Z,12.06
2018-12-22T00:57:01.629Z,12.06
2018-12-22T00:58:01.686Z,12.12
2018-12-22T00:59:01.982Z,12.06
2018-12-22T01:00:02.224Z,12.04
2018-12-22T01:01:02.220Z,11.97
2018-12-22T01:02:02.394Z,12.03
2018-12-22T01:03:02.973Z,12.02
2018-12-22T01:04:02.711Z,11.99
2018-12-22T01:05:02.964Z,11.88
2018-12-22T01:06:02.984Z,11.88
2018-12-22T01:07:03.132Z,11.87
2018-12-22T01:08:03.284Z,11.94
2018-12-22T01:09:03.373Z,11.90
2018-12-22T01:10:03.594Z,11.88
2018-12-22T01:11:03.837Z,11.95
2018-12-22T01:12:04.063Z,11.90
2018-12-22T01:13:04.103Z,11.88
2018-12-22T01:14:04.215Z,11.97
2018-12-22T01:15:04.952Z,12.04
2018-12-22T01:16:04.411Z,12.06
2018-12-22T01:17:05.510Z,11.97
2018-12-22T01:18:04.829Z,12.02
2018-12-22T01:19:05.089Z,12.06
2018-12-22T01:20:05.061Z,12.03
2018-12-22T01:21:05.158Z,12.02
2018-12-22T01:22:05.306Z,12.06
2018-12-22T01:23:05.402Z,11.90
2018-12-22T01:24:05.530Z,11.99
2018-12-22T01:25:05.626Z,12.03
2018-12-22T01:26:05.704Z,11.99
2018-12-22T01:27:06.076Z,12.02
2018-12-22T01:28:06.066Z,12.04
2018-12-22T01:29:06.408Z,12.03
2018-12-22T01:30:06.430Z,12.00
2018-12-22T01:31:06.489Z,11.99
2018-12-22T01:32:06.749Z,12.06
2018-12-22T01:33:06.972Z,11.97
2018-12-22T01:34:07.024Z,11.95
2018-12-22T01:35:07.188Z,11.99
2018-12-22T01:36:07.294Z,11.87
2018-12-22T01:37:07.521Z,12.00
2018-12-22T01:38:07.556Z,12.09
2018-12-22T01:39:07.665Z,12.04
2018-12-22T01:40:07.920Z,12.04
2018-12-22T01:41:07.842Z,12.09
2018-12-22T01:42:08.043Z,12.02
2018-12-22T01:43:08.271Z,12.03
2018-12-22T01:44:08.414Z,12.07
2018-12-22T01:45:08.493Z,12.06
2018-12-22T01:46:08.661Z,12.10
2018-12-22T01:47:08.837Z,12.04
2018-12-22T01:48:08.995Z,12.12
2018-12-22T01:49:09.155Z,12.15
2018-12-22T01:50:09.328Z,12.13
2018-12-22T01:51:09.496Z,12.10
2018-12-22T01:52:09.669Z,12.18
2018-12-22T01:53:09.853Z,12.15
2018-12-22T01:54:10.045Z,12.12
2018-12-22T01:55:10.189Z,12.07
2018-12-22T01:56:10.351Z,12.10
2018-12-22T01:57:10.529Z,12.04
2018-12-22T01:58:10.690Z,12.06
2018-12-22T01:59:10.864Z,12.00
2018-12-22T02:00:11.026Z,12.13
2018-12-22T02:01:11.182Z,12.06
2018-12-22T02:02:11.362Z,12.02
2018-12-22T02:03:11.578Z,12.09
2018-12-22T02:04:11.642Z,12.04
2018-12-22T02:05:11.811Z,12.10
2018-12-22T02:06:11.979Z,11.99
2018-12-22T02:07:12.137Z,12.00
2018-12-22T02:08:12.312Z,12.12
2018-12-22T02:09:12.478Z,12.00
2018-12-22T02:10:12.650Z,12.03
2018-12-22T02:11:12.814Z,12.04
2018-12-22T02:12:12.985Z,12.03
2018-12-22T02:13:13.165Z,12.06
2018-12-22T02:14:13.336Z,12.04
2018-12-22T02:15:13.513Z,12.07
2018-12-22T02:16:13.739Z,11.99
2018-12-22T02:17:13.871Z,12.10
2018-12-22T02:18:14.046Z,12.09
2018-12-22T02:19:14.218Z,12.09
2018-12-22T02:20:14.416Z,12.07
2018-12-22T02:21:14.553Z,12.12
2018-12-22T02:22:14.717Z,12.12
2018-12-22T02:23:14.880Z,12.07
2018-12-22T02:24:15.042Z,12.10
2018-12-22T02:25:15.212Z,12.10
2018-12-22T02:26:15.382Z,12.15
2018-12-22T02:27:15.553Z,12.04
2018-12-22T02:28:15.732Z,12.09
2018-12-22T02:29:15.882Z,12.07
2018-12-22T02:30:16.082Z,12.12
2018-12-22T02:31:16.267Z,12.07
2018-12-22T02:32:19.005Z,12.07
2018-12-22T02:33:16.547Z,12.06
2018-12-22T02:34:16.710Z,12.09
2018-12-22T02:35:16.921Z,12.06
2018-12-22T02:36:17.058Z,12.09
2018-12-22T02:37:17.211Z,12.10
2018-12-22T02:38:17.376Z,12.03
2018-12-22T02:39:17.546Z,12.09
2018-12-22T02:40:17.713Z,12.07
2018-12-22T02:41:17.878Z,12.17
2018-12-22T02:42:18.103Z,12.18
2018-12-22T02:43:18.167Z,12.17
2018-12-22T02:44:18.335Z,12.17
2018-12-22T02:45:18.497Z,12.20
2018-12-22T02:46:21.516Z,12.28
2018-12-22T02:47:18.869Z,12.21
2018-12-22T02:48:19.050Z,12.31
2018-12-22T02:49:19.226Z,12.28
2018-12-22T02:50:19.405Z,12.22
2018-12-22T02:51:19.580Z,12.25
2018-12-22T02:52:19.730Z,12.21
2018-12-22T02:53:19.898Z,12.24
2018-12-22T02:54:20.067Z,12.21
2018-12-22T02:55:20.231Z,12.12
2018-12-22T02:56:20.401Z,12.13
2018-12-22T02:57:20.563Z,12.06
2018-12-22T02:58:20.720Z,12.03
2018-12-22T02:59:20.895Z,12.06
2018-12-22T03:00:21.062Z,12.07
2018-12-22T03:01:21.225Z,12.06
2018-12-22T03:02:21.398Z,12.00
2018-12-22T03:03:21.623Z,12.00
2018-12-22T03:04:21.738Z,12.09
2018-12-22T03:05:21.912Z,12.06
2018-12-22T03:06:22.065Z,12.07
2018-12-22T03:07:22.242Z,12.02
2018-12-22T03:08:22.410Z,12.13
2018-12-22T03:09:22.571Z,12.02
2018-12-22T03:10:22.744Z,12.07
2018-12-22T03:11:22.957Z,12.03
2018-12-22T03:12:23.071Z,12.10
2018-12-22T03:13:23.215Z,11.91
2018-12-22T03:14:23.377Z,12.02
2018-12-22T03:15:23.545Z,11.91
2018-12-22T03:16:23.727Z,11.87
2018-12-22T03:17:23.879Z,11.95
2018-12-22T03:18:24.046Z,11.97
2018-12-22T03:19:24.259Z,11.95
2018-12-22T03:20:24.393Z,12.04
2018-12-22T03:21:24.600Z,11.97
2018-12-22T03:22:24.662Z,11.87
2018-12-22T03:23:24.842Z,12.00
2018-12-22T03:24:25.122Z,12.02
2018-12-22T03:25:25.223Z,11.84
2018-12-22T03:26:25.391Z,11.84
2018-12-22T03:27:25.585Z,11.97
2018-12-22T03:28:25.745Z,11.88
2018-12-22T03:29:25.948Z,11.84
2018-12-22T03:30:26.094Z,11.88
2018-12-22T03:31:26.274Z,11.88
2018-12-22T03:32:26.467Z,11.87
2018-12-22T03:33:26.624Z,11.84
2018-12-22T03:34:26.789Z,11.84
2018-12-22T03:35:26.964Z,11.88
2018-12-22T03:36:27.135Z,11.84
2018-12-22T03:37:27.304Z,11.88
2018-12-22T03:38:27.506Z,11.88
2018-12-22T03:39:27.687Z,11.97
2018-12-22T03:40:27.862Z,11.97
2018-12-22T03:41:28.024Z,11.99
2018-12-22T03:42:28.317Z,11.97
2018-12-22T03:43:28.404Z,11.97
2018-12-22T03:44:28.679Z,11.88
2018-12-22T03:45:28.726Z,11.90
2018-12-22T03:46:28.890Z,12.02
2018-12-22T03:47:29.056Z,11.91
2018-12-22T03:48:29.235Z,11.91
2018-12-22T03:49:29.404Z,11.97
2018-12-22T03:50:29.584Z,11.84
2018-12-22T03:51:29.742Z,11.95
2018-12-22T03:52:29.918Z,11.87
2018-12-22T03:53:30.109Z,11.97
2018-12-22T03:54:30.268Z,11.86
2018-12-22T03:55:30.488Z,11.87
2018-12-22T03:56:30.599Z,11.84
2018-12-22T03:57:30.844Z,11.87
2018-12-22T03:58:31.127Z,11.90
2018-12-22T03:59:31.116Z,11.88
2018-12-22T04:00:31.306Z,11.91
2018-12-22T04:01:31.467Z,11.86
2018-12-22T04:02:31.642Z,11.83
2018-12-22T04:03:31.810Z,11.81
2018-12-22T04:04:31.982Z,11.78
2018-12-22T04:05:32.153Z,11.73
2018-12-22T04:06:32.331Z,11.83
2018-12-22T04:07:32.497Z,11.84
2018-12-22T04:08:32.661Z,11.84
2018-12-22T04:09:32.828Z,11.86
2018-12-22T04:10:33.012Z,11.84
2018-12-22T04:11:33.185Z,11.84
2018-12-22T04:12:33.371Z,11.88
2018-12-22T04:13:33.541Z,11.80
2018-12-22T04:14:33.711Z,11.86
2018-12-22T04:15:33.893Z,11.86
2018-12-22T04:16:34.047Z,11.90
2018-12-22T04:17:34.242Z,11.91
2018-12-22T04:18:34.408Z,11.91
2018-12-22T04:19:34.580Z,11.91
2018-12-22T04:20:34.744Z,11.88
2018-12-22T04:21:34.906Z,11.84
2018-12-22T04:22:35.094Z,11.90
2018-12-22T04:23:35.261Z,11.87
2018-12-22T04:24:35.438Z,11.97
2018-12-22T04:25:35.602Z,11.87
2018-12-22T04:26:35.774Z,11.88
2018-12-22T04:27:35.979Z,11.84
2018-12-22T04:28:36.183Z,11.84
2018-12-22T04:29:36.402Z,11.84
2018-12-22T04:30:36.588Z,11.86
2018-12-22T04:31:36.771Z,11.90
2018-12-22T04:32:37.115Z,11.97
2018-12-22T04:33:37.041Z,11.91
2018-12-22T04:34:37.214Z,12.00
2018-12-22T04:35:37.424Z,11.87
2018-12-22T04:36:37.597Z,11.99
2018-12-22T04:37:37.775Z,11.88
2018-12-22T04:38:37.955Z,11.95
2018-12-22T04:39:38.163Z,12.03
2018-12-22T04:40:38.274Z,11.86
2018-12-22T04:41:38.445Z,12.02
2018-12-22T04:42:38.614Z,12.03
2018-12-22T04:43:38.789Z,12.03
2018-12-22T04:44:38.959Z,12.03
2018-12-22T04:45:39.132Z,11.99
2018-12-22T04:46:39.342Z,11.94
2018-12-22T04:47:40.069Z,11.88
2018-12-22T04:48:39.681Z,11.88
2018-12-22T04:49:39.833Z,11.88
2018-12-22T04:50:40.010Z,11.84
2018-12-22T04:51:40.158Z,11.94
2018-12-22T04:52:40.342Z,11.90
2018-12-22T04:53:40.534Z,11.94
2018-12-22T04:54:40.671Z,11.83
2018-12-22T04:55:40.862Z,11.86
2018-12-22T04:56:41.004Z,11.90
2018-12-22T04:57:41.178Z,11.77
2018-12-22T04:58:41.350Z,11.81
2018-12-22T04:59:43.120Z,11.88
2018-12-22T05:00:41.705Z,11.88
2018-12-22T05:01:41.846Z,11.99
2018-12-22T05:02:42.022Z,11.88
2018-12-22T05:03:42.182Z,11.95
2018-12-22T05:04:42.359Z,11.86
2018-12-22T05:05:42.529Z,11.83
2018-12-22T05:06:42.695Z,11.87
2018-12-22T05:07:42.860Z,11.87
2018-12-22T05:08:43.027Z,11.83
2018-12-22T05:09:43.195Z,11.91
2018-12-22T05:10:43.361Z,11.87
2018-12-22T05:11:43.528Z,11.84
2018-12-22T05:12:43.740Z,11.80
2018-12-22T05:13:44.031Z,11.83
2018-12-22T05:14:44.064Z,11.84
2018-12-22T05:15:44.227Z,11.87
2018-12-22T05:16:44.456Z,11.86
2018-12-22T05:17:44.555Z,11.84
2018-12-22T05:18:44.726Z,11.87
2018-12-22T05:19:44.886Z,11.87
2018-12-22T05:20:45.058Z,11.84
2018-12-22T05:21:45.233Z,11.69
2018-12-22T05:22:45.390Z,11.69
2018-12-22T05:23:45.555Z,11.73
2018-12-22T05:24:45.724Z,11.55
2018-12-22T05:25:45.898Z,11.60
2018-12-22T05:26:46.056Z,11.57
2018-12-22T05:27:46.224Z,11.52
2018-12-22T05:28:46.398Z,11.48
2018-12-22T05:29:51.880Z,11.52
2018-12-22T05:30:46.725Z,11.60
2018-12-22T05:31:46.886Z,11.55
2018-12-22T05:32:47.053Z,11.55
2018-12-22T05:33:47.219Z,11.55
2018-12-22T05:34:47.393Z,11.60
2018-12-22T05:35:47.554Z,11.59
2018-12-22T05:36:47.733Z,11.37
2018-12-22T05:37:47.906Z,11.44
2018-12-22T05:38:48.080Z,11.47
2018-12-22T05:39:48.244Z,11.32
2018-12-22T05:40:48.407Z,11.35
2018-12-22T05:41:48.583Z,11.37
2018-12-22T05:42:48.786Z,11.37
2018-12-22T05:43:51.045Z,11.43
2018-12-22T05:44:49.147Z,11.36
2018-12-22T05:45:49.304Z,11.43
2018-12-22T05:46:49.475Z,11.44
2018-12-22T05:47:49.648Z,11.47
2018-12-22T05:48:49.808Z,11.30
2018-12-22T05:49:49.966Z,11.35
2018-12-22T05:50:50.141Z,11.32
2018-12-22T05:51:50.311Z,11.36
2018-12-22T05:52:50.473Z,11.30
2018-12-22T05:53:50.637Z,11.32
2018-12-22T05:54:50.818Z,11.33
2018-12-22T05:55:50.962Z,11.30
2018-12-22T05:56:51.130Z,11.40
2018-12-22T05:57:51.304Z,11.35
2018-12-22T05:58:51.466Z,11.36
2018-12-22T06:00:00.228Z,11.27
2018-12-22T06:00:51.808Z,11.33
2018-12-22T06:01:51.938Z,11.32
2018-12-22T06:02:52.096Z,11.29
2018-12-22T06:03:52.260Z,11.26
2018-12-22T06:04:52.425Z,11.26
2018-12-22T06:05:52.594Z,11.33
2018-12-22T06:06:52.754Z,11.19
2018-12-22T06:07:52.927Z,11.18
2018-12-22T06:08:53.087Z,11.30
2018-12-22T06:09:53.247Z,11.19
2018-12-22T06:10:53.419Z,11.15
2018-12-22T06:11:53.546Z,11.26
2018-12-22T06:12:53.713Z,11.14
2018-12-22T06:13:53.880Z,11.32
2018-12-22T06:14:54.049Z,11.04
2018-12-22T06:15:54.206Z,11.17
2018-12-22T06:16:54.369Z,11.12
2018-12-22T06:17:54.541Z,11.10
2018-12-22T06:18:54.703Z,11.00
2018-12-22T06:19:54.883Z,11.10
2018-12-22T06:20:55.031Z,11.02
2018-12-22T06:21:55.190Z,11.02
2018-12-22T06:22:55.362Z,10.93
2018-12-22T06:23:55.527Z,10.94
2018-12-22T06:24:55.700Z,10.97
2018-12-22T06:25:55.865Z,11.04
2018-12-22T06:26:56.035Z,10.99
2018-12-22T06:27:56.193Z,10.86
2018-12-22T06:28:56.372Z,10.86
2018-12-22T06:29:56.545Z,10.87
2018-12-22T06:30:56.714Z,10.89
2018-12-22T06:31:56.879Z,10.94
2018-12-22T06:32:57.057Z,10.90
2018-12-22T06:33:57.216Z,10.92
2018-12-22T06:34:57.375Z,10.90
2018-12-22T06:35:57.557Z,10.92
2018-12-22T06:36:57.716Z,10.89
2018-12-22T06:37:57.877Z,10.92
2018-12-22T06:38:58.039Z,10.84
2018-12-22T06:39:58.208Z,10.93
2018-12-22T06:40:58.400Z,10.99
2018-12-22T06:41:58.553Z,10.99
2018-12-22T06:42:58.726Z,11.00
2018-12-22T06:43:58.898Z,11.07
2018-12-22T06:44:59.096Z,11.11
2018-12-22T06:45:59.262Z,11.07
2018-12-22T06:46:59.432Z,11.17
2018-12-22T06:47:59.595Z,11.18
2018-12-22T06:48:59.757Z,11.14
2018-12-22T06:49:59.960Z,11.26
2018-12-22T06:51:00.105Z,11.15
2018-12-22T06:52:00.274Z,11.25
2018-12-22T06:53:00.465Z,11.18
2018-12-22T06:54:00.644Z,11.25
2018-12-22T06:55:00.774Z,11.17
2018-12-22T06:56:00.961Z,11.33
2018-12-22T06:57:01.112Z,11.29
2018-12-22T06:58:01.270Z,11.37
2018-12-22T06:59:01.431Z,11.37
2018-12-22T07:00:01.624Z,11.40
2018-12-22T07:01:01.721Z,11.32
2018-12-22T07:02:01.887Z,11.12
2018-12-22T07:03:02.060Z,11.27
2018-12-22T07:04:02.256Z,11.27
2018-12-22T07:05:02.676Z,11.23
2018-12-22T07:06:02.561Z,11.25
2018-12-22T07:07:02.725Z,11.29
2018-12-22T07:08:02.885Z,11.15
2018-12-22T07:09:07.265Z,11.19
2018-12-22T07:10:03.275Z,11.19
2018-12-22T07:11:03.421Z,11.18
2018-12-22T07:12:03.594Z,11.25
2018-12-22T07:13:03.751Z,11.29
2018-12-22T07:14:03.916Z,11.27
2018-12-22T07:15:04.078Z,11.27
2018-12-22T07:16:04.243Z,11.32
2018-12-22T07:17:04.423Z,11.26
2018-12-22T07:18:04.592Z,11.26
2018-12-22T07:19:04.760Z,11.30
2018-12-22T07:20:04.925Z,11.30
2018-12-22T07:21:05.103Z,11.37
2018-12-22T07:22:05.268Z,11.29
2018-12-22T07:23:05.432Z,11.43
2018-12-22T07:24:05.610Z,11.44
2018-12-22T07:25:05.781Z,11.47
2018-12-22T07:26:05.955Z,11.43
2018-12-22T07:27:06.353Z,11.41
2018-12-22T07:28:06.462Z,11.35
2018-12-22T07:29:06.502Z,11.48
2018-12-22T07:30:06.658Z,11.50
2018-12-22T07:31:06.829Z,11.43
2018-12-22T07:32:06.999Z,11.40
2018-12-22T07:33:07.160Z,11.43
2018-12-22T07:34:07.322Z,11.27
2018-12-22T07:35:07.482Z,11.32
2018-12-22T07:36:07.649Z,11.35
2018-12-22T07:37:07.816Z,11.33
2018-12-22T07:38:07.992Z,11.32
2018-12-22T07:39:08.152Z,11.43
2018-12-22T07:40:08.318Z,11.35
2018-12-22T07:41:08.480Z,11.45
2018-12-22T07:42:08.645Z,11.45
2018-12-22T07:43:08.811Z,11.37
2018-12-22T07:44:08.975Z,11.44
2018-12-22T07:45:09.145Z,11.50
2018-12-22T07:46:09.298Z,11.50
2018-12-22T07:47:09.506Z,11.57
2018-12-22T07:48:09.693Z,11.63
2018-12-22T07:49:09.906Z,11.65
2018-12-22T07:50:10.061Z,11.75
2018-12-22T07:51:10.202Z,11.75
2018-12-22T07:52:10.405Z,11.90
2018-12-22T07:53:11.018Z,11.87
2018-12-22T07:54:10.782Z,11.88
2018-12-22T07:55:10.966Z,11.77
2018-12-22T07:56:11.097Z,11.81
2018-12-22T07:57:11.272Z,11.72
2018-12-22T07:58:11.546Z,11.70
2018-12-22T07:59:11.651Z,11.51
2018-12-22T08:00:11.815Z,11.54
2018-12-22T08:01:12.018Z,11.52
2018-12-22T08:02:12.227Z,11.54
2018-12-22T08:03:13.851Z,11.50
2018-12-22T08:04:12.486Z,11.44
2018-12-22T08:05:12.655Z,11.45
2018-12-22T08:06:16.780Z,11.47
2018-12-22T08:07:12.962Z,11.48
2018-12-22T08:08:13.141Z,11.37
2018-12-22T08:09:14.426Z,11.35
2018-12-22T08:10:13.399Z,11.30
2018-12-22T08:11:13.568Z,11.32
2018-12-22T08:12:13.734Z,11.47
2018-12-22T08:13:13.915Z,11.37
2018-12-22T08:14:14.089Z,11.48
2018-12-22T08:15:14.268Z,11.48
2018-12-22T08:16:14.445Z,11.40
2018-12-22T08:17:14.620Z,11.48
2018-12-22T08:18:14.667Z,11.44
2018-12-22T08:19:14.859Z,11.44
2018-12-22T08:20:15.002Z,11.33
2018-12-22T08:21:15.175Z,11.37
2018-12-22T08:22:15.347Z,11.45
2018-12-22T08:23:15.507Z,11.35
2018-12-22T08:24:15.682Z,11.37
2018-12-22T08:25:15.857Z,11.33
2018-12-22T08:26:16.021Z,11.40
2018-12-22T08:27:16.203Z,11.36
2018-12-22T08:28:16.420Z,11.37
2018-12-22T08:29:16.559Z,11.43
2018-12-22T08:30:16.730Z,11.36
2018-12-22T08:31:16.918Z,11.23
2018-12-22T08:32:17.079Z,11.18
2018-12-22T08:33:17.242Z,11.19
2018-12-22T08:34:17.409Z,11.15
2018-12-22T08:35:17.611Z,11.29
2018-12-22T08:36:17.805Z,11.27
2018-12-22T08:37:17.930Z,11.25
2018-12-22T08:38:18.107Z,11.14
2018-12-22T08:39:18.289Z,11.15
2018-12-22T08:40:18.422Z,11.19
2018-12-22T08:41:18.615Z,11.10
2018-12-22T08:42:18.785Z,11.27
2018-12-22T08:43:18.958Z,11.12
2018-12-22T08:44:19.128Z,11.17
2018-12-22T08:45:19.301Z,11.10
2018-12-22T08:46:19.476Z,11.12
2018-12-22T08:47:19.638Z,11.04
2018-12-22T08:48:19.808Z,11.14
2018-12-22T08:49:19.965Z,11.11
2018-12-22T08:50:20.130Z,11.14
2018-12-22T08:51:20.304Z,11.26
2018-12-22T08:52:20.459Z,11.17
2018-12-22T08:53:20.847Z,11.12
2018-12-22T08:54:20.775Z,11.12
2018-12-22T08:55:20.942Z,11.08
2018-12-22T08:56:21.113Z,11.10
2018-12-22T08:57:21.267Z,11.05
2018-12-22T08:58:21.446Z,11.10
2018-12-22T08:59:21.612Z,11.17
2018-12-22T09:00:21.779Z,11.18
2018-12-22T09:01:21.943Z,11.17
2018-12-22T09:02:22.202Z,11.18
2018-12-22T09:03:22.301Z,11.27
2018-12-22T09:04:22.477Z,11.08
2018-12-22T09:05:22.859Z,11.17
2018-12-22T09:06:22.789Z,11.17
2018-12-22T09:07:22.956Z,11.14
2018-12-22T09:08:23.119Z,11.07
2018-12-22T09:09:23.283Z,11.18
2018-12-22T09:10:23.446Z,11.11
2018-12-22T09:11:23.607Z,11.30
2018-12-22T09:12:23.771Z,11.19
2018-12-22T09:13:23.945Z,11.25
2018-12-22T09:14:24.121Z,11.17
2018-12-22T09:15:24.323Z,11.11
2018-12-22T09:16:24.555Z,11.14
2018-12-22T09:17:24.715Z,11.14
2018-12-22T09:18:24.882Z,11.33
2018-12-22T09:19:27.024Z,11.08
2018-12-22T09:20:25.199Z,11.04
2018-12-22T09:21:25.364Z,11.07
2018-12-22T09:22:25.530Z,11.08
2018-12-22T09:23:25.690Z,10.97
2018-12-22T09:24:25.884Z,11.14
2018-12-22T09:25:26.060Z,11.30
2018-12-22T09:26:26.229Z,11.10
2018-12-22T09:27:26.394Z,11.12
2018-12-22T09:28:26.571Z,11.27
2018-12-22T09:29:26.737Z,11.37
2018-12-22T09:30:26.899Z,11.32
2018-12-22T09:31:27.060Z,11.36
2018-12-22T09:32:27.231Z,11.48
2018-12-22T09:33:27.398Z,11.37
2018-12-22T09:34:27.579Z,11.41
2018-12-22T09:35:27.734Z,11.43
2018-12-22T09:36:27.902Z,11.50
2018-12-22T09:37:28.072Z,11.54
2018-12-22T09:38:28.232Z,11.62
2018-12-22T09:39:28.403Z,11.81
2018-12-22T09:40:28.567Z,11.84
2018-12-22T09:41:28.736Z,11.78
2018-12-22T09:42:28.908Z,11.73
2018-12-22T09:43:29.079Z,11.68
2018-12-22T09:44:29.243Z,11.68
2018-12-22T09:45:29.415Z,11.69
2018-12-22T09:46:29.581Z,11.60
2018-12-22T09:47:29.748Z,11.63
2018-12-22T09:48:29.927Z,11.72
2018-12-22T09:49:30.099Z,11.60
2018-12-22T09:50:30.259Z,11.59
2018-12-22T09:51:30.437Z,11.68
2018-12-22T09:52:30.593Z,11.69
2018-12-22T09:53:30.765Z,11.63
2018-12-22T09:54:30.926Z,11.59
2018-12-22T09:55:31.099Z,11.59
2018-12-22T09:56:31.265Z,11.63
2018-12-22T09:57:31.433Z,11.62
2018-12-22T09:58:31.603Z,11.75
2018-12-22T09:59:31.760Z,11.75
2018-12-22T10:00:31.937Z,11.80
2018-12-22T10:01:32.108Z,11.70
2018-12-22T10:02:32.282Z,11.78
2018-12-22T10:03:32.465Z,11.55
2018-12-22T10:04:32.638Z,11.54
2018-12-22T10:05:32.804Z,11.78
2018-12-22T10:06:32.990Z,11.88
2018-12-22T10:07:33.152Z,11.84
2018-12-22T10:08:33.320Z,12.03
2018-12-22T10:09:33.484Z,11.95
2018-12-22T10:10:33.662Z,11.94
2018-12-22T10:11:33.837Z,11.91
2018-12-22T10:12:34.006Z,12.06
2018-12-22T10:13:34.180Z,12.07
2018-12-22T10:14:34.370Z,12.20
2018-12-22T10:15:34.556Z,12.20
2018-12-22T10:16:34.725Z,12.22
2018-12-22T10:17:34.885Z,12.27
2018-12-22T10:18:35.075Z,12.17
2018-12-22T10:19:35.248Z,12.20
2018-12-22T10:20:35.426Z,12.02
2018-12-22T10:21:35.581Z,11.99
2018-12-22T10:22:35.768Z,12.06
2018-12-22T10:23:36.020Z,12.06
2018-12-22T10:24:36.095Z,12.00
2018-12-22T10:25:36.258Z,11.99
2018-12-22T10:26:36.433Z,12.07
2018-12-22T10:27:36.596Z,12.09
2018-12-22T10:28:36.765Z,12.04
2018-12-22T10:29:36.947Z,12.07
2018-12-22T10:30:37.115Z,12.04
2018-12-22T10:31:37.281Z,12.03
2018-12-22T10:32:37.455Z,12.07
2018-12-22T10:33:37.671Z,12.15
2018-12-22T10:34:37.821Z,12.21
2018-12-22T10:35:38.002Z,12.35
2018-12-22T10:36:38.197Z,12.31
2018-12-22T10:37:38.363Z,12.37
2018-12-22T10:38:38.530Z,12.25
2018-12-22T10:39:38.733Z,12.17
2018-12-22T10:40:38.885Z,12.12
2018-12-22T10:41:39.060Z,12.06
2018-12-22T10:42:39.336Z,11.91
2018-12-22T10:43:39.370Z,11.90
2018-12-22T10:44:39.540Z,11.99
2018-12-22T10:45:39.716Z,11.94
2018-12-22T10:46:39.926Z,11.87
2018-12-22T10:47:40.154Z,11.94
2018-12-22T10:48:40.402Z,11.94
2018-12-22T10:49:40.376Z,11.86
2018-12-22T10:50:40.543Z,11.88
2018-12-22T10:51:40.706Z,11.90
2018-12-22T10:52:40.869Z,11.94
2018-12-22T10:53:41.030Z,11.83
2018-12-22T10:54:41.202Z,11.88
2018-12-22T10:55:41.373Z,11.86
2018-12-22T10:56:41.567Z,11.75
2018-12-22T10:57:41.738Z,11.72
2018-12-22T10:58:41.897Z,11.69
2018-12-22T10:59:42.002Z,11.75
2018-12-22T11:00:42.447Z,11.75
2018-12-22T11:01:42.505Z,11.77
2018-12-22T11:02:42.703Z,11.87
2018-12-22T11:03:42.934Z,11.86
2018-12-22T11:04:42.866Z,11.86
2018-12-22T11:05:43.045Z,11.80
2018-12-22T11:06:43.218Z,11.88
2018-12-22T11:07:43.390Z,11.88
2018-12-22T11:08:43.557Z,11.83
2018-12-22T11:09:43.698Z,11.86
2018-12-22T11:10:43.879Z,11.83
2018-12-22T11:11:44.041Z,11.88
2018-12-22T11:12:44.207Z,12.02
2018-12-22T11:13:44.379Z,11.99
2018-12-22T11:14:44.554Z,12.03
2018-12-22T11:15:44.728Z,12.00
2018-12-22T11:16:44.897Z,12.15
2018-12-22T11:17:45.074Z,12.18
2018-12-22T11:18:45.246Z,12.15
2018-12-22T11:19:45.418Z,12.24
2018-12-22T11:20:45.607Z,12.21
2018-12-22T11:21:45.759Z,12.29
2018-12-22T11:22:45.935Z,12.36
2018-12-22T11:23:46.099Z,12.31
2018-12-22T11:24:46.267Z,12.36
2018-12-22T11:25:46.434Z,12.37
2018-12-22T11:26:46.628Z,12.39
2018-12-22T11:27:46.792Z,12.32
2018-12-22T11:28:46.951Z,12.36
2018-12-22T11:29:47.116Z,12.28
2018-12-22T11:30:47.281Z,12.25
2018-12-22T11:31:47.449Z,12.21
2018-12-22T11:32:47.622Z,12.18
2018-12-22T11:33:47.788Z,12.18
2018-12-22T11:34:47.948Z,12.17
2018-12-22T11:35:48.132Z,12.18
2018-12-22T11:36:48.633Z,12.04
2018-12-22T11:37:48.653Z,12.04
2018-12-22T11:38:48.820Z,12.07
2018-12-22T11:39:49.126Z,11.99
2018-12-22T11:40:49.321Z,11.95
2018-12-22T11:41:49.332Z,11.97
2018-12-22T11:42:49.586Z,12.06
2018-12-22T11:43:49.905Z,12.03
2018-12-22T11:44:50.204Z,12.06
2018-12-22T11:45:50.162Z,12.00
2018-12-22T11:46:50.372Z,12.03
2018-12-22T11:47:50.485Z,12.21
2018-12-22T11:48:50.756Z,12.18
2018-12-22T11:49:50.787Z,12.18
2018-12-22T11:50:50.936Z,12.07
2018-12-22T11:51:50.881Z,12.02
2018-12-22T11:52:51.041Z,12.12
2018-12-22T11:53:51.227Z,12.09
2018-12-22T11:54:51.401Z,12.02
2018-12-22T11:55:51.587Z,12.06
2018-12-22T11:56:51.760Z,12.03
2018-12-22T11:57:51.925Z,12.02
2018-12-22T11:58:52.098Z,12.12
2018-12-22T11:59:52.278Z,12.04
2018-12-22T12:00:52.440Z,12.09
2018-12-22T12:01:52.619Z,12.13
2018-12-22T12:02:52.789Z,12.15
2018-12-22T12:03:52.957Z,12.13
2018-12-22T12:04:53.131Z,12.15
2018-12-22T12:05:53.338Z,12.20
2018-12-22T12:06:53.486Z,12.15
2018-12-22T12:07:53.644Z,12.27
2018-12-22T12:08:53.810Z,12.21
2018-12-22T12:09:53.970Z,12.21
2018-12-22T12:10:54.145Z,12.24
2018-12-22T12:11:54.317Z,12.22
2018-12-22T12:12:54.474Z,12.20
2018-12-22T12:13:54.660Z,12.15
2018-12-22T12:14:54.831Z,12.17
2018-12-22T12:15:55.009Z,12.17
2018-12-22T12:16:55.174Z,12.22
2018-12-22T12:17:55.344Z,12.31
2018-12-22T12:18:55.554Z,12.37
2018-12-22T12:19:55.706Z,12.27
2018-12-22T12:20:55.874Z,12.31
2018-12-22T12:21:56.032Z,12.39
2018-12-22T12:22:56.353Z,12.18
2018-12-22T12:23:56.399Z,12.39
2018-12-22T12:24:56.555Z,12.43
2018-12-22T12:25:56.731Z,12.40
2018-12-22T12:26:56.913Z,12.47
2018-12-22T12:27:57.085Z,12.47
2018-12-22T12:28:57.452Z,12.42
2018-12-22T12:29:57.415Z,12.42
2018-12-22T12:30:57.580Z,12.40
2018-12-22T12:31:57.747Z,12.47
2018-12-22T12:32:57.931Z,12.58
2018-12-22T12:33:58.087Z,12.43
2018-12-22T12:34:58.266Z,12.43
2018-12-22T12:35:58.451Z,12.42
2018-12-22T12:36:58.615Z,12.45
2018-12-22T12:37:58.791Z,12.53
2018-12-22T12:38:58.958Z,12.62
2018-12-22T12:39:59.126Z,12.60
2018-12-22T12:40:59.336Z,12.57
2018-12-22T12:41:59.455Z,12.61
2018-12-22T12:42:59.667Z,12.45
2018-12-22T12:43:59.801Z,12.57
2018-12-22T12:44:59.975Z,12.60
2018-12-22T12:46:00.148Z,12.54
2018-12-22T12:47:00.318Z,12.54
2018-12-22T12:48:00.509Z,12.47
2018-12-22T12:49:00.653Z,12.58
2018-12-22T12:50:00.825Z,12.60
2018-12-22T12:51:00.984Z,12.65
2018-12-22T12:52:01.170Z,12.55
2018-12-22T12:53:09.438Z,12.62
2018-12-22T12:54:01.561Z,12.61
2018-12-22T12:55:01.725Z,12.62